Time,TemperatureF,DewpointF,PressureIn,WindDirection,WindDirectionDegrees,WindSpeedMPH,WindSpeedGustMPH,Humidity,HourlyPrecipIn,Conditions,Clouds,dailyrainin,SoftwareType,DateUTC
2013-11-07 00:00:00,58.0,56.0,30.09,SSW,200,21.0,23.0,91,-99.99,,,-99.99,,2013-11-07 05:00:00,
2013-11-07 00:44:00,58.0,56.0,30.09,SSW,200,21.0,23.0,91,-99.99,,,-99.99,,2013-11-07 05:44:00,
2013-11-07 00:54:00,58.0,56.0,30.09,SSW,200,21.0,23.0,91,-99.99,,,-99.99,,2013-11-07 05:54:00,
2013-11-07 01:00:00,59.0,57.0,30.06,SSW,200,22.0,24.0,94,-99.99,,,-99.99,,2013-11-07 06:00:00,
2013-11-07 01:42:00,59.0,57.0,30.06,SSW,200,22.0,24.0,94,-99.99,,,-99.99,,2013-11-07 06:42:00,
2013-11-07 01:52:00,59.0,57.0,30.06,SSW,200,22.0,24.0,94,-99.99,,,-99.99,,2013-11-07 06:52:00,
2013-11-07 02:00:00,59.0,58.0,30.04,SSW,210,18.0,20.0,97,-99.99,,,-99.99,,2013-11-07 07:00:00,
2013-11-07 02:42:00,59.0,58.0,30.04,SSW,210,18.0,20.0,97,-99.99,,,-99.99,,2013-11-07 07:42:00,
2013-11-07 02:52:00,59.0,58.0,30.04,SSW,210,18.0,20.0,97,-99.99,,,-99.99,,2013-11-07 07:52:00,
2013-11-07 03:00:00,60.0,59.0,30.00,SSW,210,25.0,28.0,98,-99.99,,,-99.99,,2013-11-07 08:00:00,
2013-11-07 03:42:00,60.0,59.0,30.00,SSW,210,25.0,28.0,98,-99.99,,,-99.99,,2013-11-07 08:42:00,
2013-11-07 03:52:00,60.0,59.0,30.00,SSW,210,25.0,28.0,98,-99.99,,,-99.99,,2013-11-07 08:52:00,
2013-11-07 04:00:00,59.0,59.0,29.97,SW,220,30.0,33.0,100,-99.99,,,-99.99,,2013-11-07 09:00:00,
2013-11-07 04:42:00,59.0,59.0,29.97,SW,220,30.0,33.0,100,-99.99,,,-99.99,,2013-11-07 09:42:00,
2013-11-07 04:53:00,59.0,59.0,29.97,SW,220,30.0,33.0,100,-99.99,,,-99.99,,2013-11-07 09:53:00,
2013-11-07 05:00:00,59.0,59.0,29.95,SSW,200,23.0,24.0,100,-99.99,,,-99.99,,2013-11-07 10:00:00,
2013-11-07 05:42:00,59.0,59.0,29.95,SSW,200,23.0,24.0,100,-99.99,,,-99.99,,2013-11-07 10:42:00,
2013-11-07 05:52:00,59.0,59.0,29.95,SSW,200,23.0,24.0,100,-99.99,,,-99.99,,2013-11-07 10:52:00,
2013-11-07 06:00:00,59.0,59.0,29.88,South,180,29.0,32.0,100,-99.99,,,-99.99,,2013-11-07 11:00:00,
2013-11-07 06:22:00,59.0,59.0,29.88,South,180,29.0,32.0,100,-99.99,,,-99.99,,2013-11-07 11:22:00,
2013-11-07 06:42:00,59.0,59.0,29.88,South,180,29.0,32.0,100,-99.99,,,-99.99,,2013-11-07 11:42:00,
2013-11-07 06:52:00,59.0,59.0,29.88,South,180,29.0,32.0,100,-99.99,,,-99.99,,2013-11-07 11:52:00,
2013-11-07 07:00:00,60.0,60.0,29.89,SW,230,18.0,20.0,100,-99.99,,,-99.99,,2013-11-07 12:00:00,
2013-11-07 07:42:00,60.0,60.0,29.89,SW,230,18.0,20.0,100,-99.99,,,-99.99,,2013-11-07 12:42:00,
2013-11-07 07:52:00,60.0,60.0,29.89,SW,230,18.0,20.0,100,-99.99,,,-99.99,,2013-11-07 12:52:00,
2013-11-07 08:00:00,60.0,60.0,29.87,SW,220,26.0,29.0,100,-99.99,,,-99.99,,2013-11-07 13:00:00,
2013-11-07 08:41:00,60.0,60.0,29.87,SW,220,26.0,29.0,100,-99.99,,,-99.99,,2013-11-07 13:41:00,
2013-11-07 08:52:00,60.0,60.0,29.87,SW,220,26.0,29.0,100,-99.99,,,-99.99,,2013-11-07 13:52:00,
2013-11-07 09:00:00,60.0,60.0,29.85,SW,230,29.0,31.0,100,-99.99,,,-99.99,,2013-11-07 14:00:00,
2013-11-07 09:41:00,60.0,60.0,29.85,SW,230,29.0,31.0,100,-99.99,,,-99.99,,2013-11-07 14:41:00,
2013-11-07 09:52:00,60.0,60.0,29.85,SW,230,29.0,31.0,100,-99.99,,,-99.99,,2013-11-07 14:52:00,
2013-11-07 10:00:00,60.0,60.0,29.82,SW,220,25.0,28.0,100,-99.99,,,-99.99,,2013-11-07 15:00:00,
2013-11-07 10:43:00,60.0,60.0,29.82,SW,220,25.0,28.0,100,-99.99,,,-99.99,,2013-11-07 15:43:00,
2013-11-07 10:53:00,60.0,60.0,29.82,SW,220,25.0,28.0,100,-99.99,,,-99.99,,2013-11-07 15:53:00,
2013-11-07 11:00:00,60.0,60.0,29.80,WSW,240,17.0,18.0,100,-99.99,,,-99.99,,2013-11-07 16:00:00,
2013-11-07 11:42:00,60.0,60.0,29.80,WSW,240,17.0,18.0,100,-99.99,,,-99.99,,2013-11-07 16:42:00,
2013-11-07 11:52:00,60.0,60.0,29.80,WSW,240,17.0,18.0,100,-99.99,,,-99.99,,2013-11-07 16:52:00,
2013-11-07 12:00:00,60.0,60.0,29.75,SW,230,21.0,22.0,100,-99.99,,,-99.99,,2013-11-07 17:00:00,
2013-11-07 12:42:00,60.0,60.0,29.75,SW,230,21.0,22.0,100,-99.99,,,-99.99,,2013-11-07 17:42:00,
2013-11-07 12:52:00,60.0,60.0,29.75,SW,230,21.0,22.0,100,-99.99,,,-99.99,,2013-11-07 17:52:00,
2013-11-07 13:00:00,59.0,59.0,29.72,SW,230,24.0,26.0,100,-99.99,,,-99.99,,2013-11-07 18:00:00,
2013-11-07 13:41:00,59.0,59.0,29.72,SW,230,24.0,26.0,100,-99.99,,,-99.99,,2013-11-07 18:41:00,
2013-11-07 13:52:00,59.0,59.0,29.72,SW,230,24.0,26.0,100,-99.99,,,-99.99,,2013-11-07 18:52:00,
2013-11-07 14:00:00,59.0,59.0,29.71,SW,230,23.0,25.0,100,-99.99,,,-99.99,,2013-11-07 19:00:00,
2013-11-07 14:42:00,59.0,59.0,29.71,SW,230,23.0,25.0,100,-99.99,,,-99.99,,2013-11-07 19:42:00,
2013-11-07 14:52:00,59.0,59.0,29.71,SW,230,23.0,25.0,100,-99.99,,,-99.99,,2013-11-07 19:52:00,
2013-11-07 15:00:00,58.0,58.0,29.70,WSW,240,23.0,24.0,100,-99.99,,,-99.99,,2013-11-07 20:00:00,
2013-11-07 15:42:00,58.0,58.0,29.70,WSW,240,23.0,24.0,100,-99.99,,,-99.99,,2013-11-07 20:42:00,
2013-11-07 15:52:00,58.0,58.0,29.70,WSW,240,23.0,24.0,100,-99.99,,,-99.99,,2013-11-07 20:52:00,
2013-11-07 16:00:00,57.0,57.0,29.71,West,280,22.0,23.0,100,-99.99,,,-99.99,,2013-11-07 21:00:00,
2013-11-07 16:43:00,57.0,57.0,29.71,West,280,22.0,23.0,100,-99.99,,,-99.99,,2013-11-07 21:43:00,
2013-11-07 16:53:00,57.0,57.0,29.71,West,280,22.0,23.0,100,-99.99,,,-99.99,,2013-11-07 21:53:00,
2013-11-07 17:00:00,55.0,52.0,29.74,NNW,330,18.0,21.0,91,-99.99,,,-99.99,,2013-11-07 22:00:00,
2013-11-07 17:43:00,55.0,52.0,29.74,NNW,330,18.0,21.0,91,-99.99,,,-99.99,,2013-11-07 22:43:00,
2013-11-07 17:53:00,55.0,52.0,29.74,NNW,330,18.0,21.0,91,-99.99,,,-99.99,,2013-11-07 22:53:00,
2013-11-07 18:00:00,54.0,50.0,29.74,NNW,330,13.0,17.0,88,-99.99,,,-99.99,,2013-11-07 23:00:00,
2013-11-07 18:22:00,54.0,50.0,29.74,NNW,330,13.0,17.0,88,-99.99,,,-99.99,,2013-11-07 23:22:00,
2013-11-07 18:34:00,54.0,50.0,29.74,NNW,330,13.0,17.0,88,-99.99,,,-99.99,,2013-11-07 23:34:00,
2013-11-07 18:42:00,54.0,50.0,29.74,NNW,330,13.0,17.0,88,-99.99,,,-99.99,,2013-11-07 23:42:00,
2013-11-07 18:53:00,54.0,50.0,29.74,NNW,330,13.0,17.0,88,-99.99,,,-99.99,,2013-11-07 23:53:00,
2013-11-07 19:00:00,51.0,45.0,29.76,WNW,300,24.0,26.0,82,-99.99,,,-99.99,,2013-11-08 00:00:00,
2013-11-07 19:42:00,51.0,45.0,29.76,WNW,300,24.0,26.0,82,-99.99,,,-99.99,,2013-11-08 00:42:00,
2013-11-07 19:52:00,51.0,45.0,29.76,WNW,300,24.0,26.0,82,-99.99,,,-99.99,,2013-11-08 00:52:00,
2013-11-07 20:00:00,49.0,43.0,29.78,NW,310,25.0,29.0,78,-99.99,,,-99.99,,2013-11-08 01:00:00,
2013-11-07 20:42:00,49.0,43.0,29.78,NW,310,25.0,29.0,78,-99.99,,,-99.99,,2013-11-08 01:42:00,
2013-11-07 20:52:00,49.0,43.0,29.78,NW,310,25.0,29.0,78,-99.99,,,-99.99,,2013-11-08 01:52:00,
2013-11-07 21:00:00,48.0,40.0,29.79,NW,310,25.0,28.0,73,-99.99,,,-99.99,,2013-11-08 02:00:00,
2013-11-07 21:42:00,48.0,40.0,29.79,NW,310,25.0,28.0,73,-99.99,,,-99.99,,2013-11-08 02:42:00,
2013-11-07 21:52:00,48.0,40.0,29.79,NW,310,25.0,28.0,73,-99.99,,,-99.99,,2013-11-08 02:52:00,
2013-11-07 22:00:00,47.0,37.0,29.81,NW,320,29.0,33.0,67,-99.99,,,-99.99,,2013-11-08 03:00:00,
2013-11-07 22:44:00,47.0,37.0,29.81,NW,320,29.0,33.0,67,-99.99,,,-99.99,,2013-11-08 03:44:00,
2013-11-07 22:54:00,47.0,37.0,29.81,NW,320,29.0,33.0,67,-99.99,,,-99.99,,2013-11-08 03:54:00,
2013-11-07 23:00:00,47.0,35.0,29.82,NW,320,24.0,28.0,62,-99.99,,,-99.99,,2013-11-08 04:00:00,
2013-11-07 23:43:00,47.0,35.0,29.82,NW,320,24.0,28.0,62,-99.99,,,-99.99,,2013-11-08 04:43:00,
2013-11-07 23:54:00,47.0,35.0,29.82,NW,320,24.0,28.0,62,-99.99,,,-99.99,,2013-11-08 04:54:00,